sensor_id;sensor_type;location;lat;lon;timestamp;temperature;humidity
74588;SHT31;63088;51.090;-115.358;2022-09-09T00:04:15;25.13;27.52
74588;SHT31;63088;51.090;-115.358;2022-09-09T00:16:19;25.08;27.58
74588;SHT31;63088;51.090;-115.358;2022-09-09T00:19:07;25.06;27.60
74588;SHT31;63088;51.090;-115.358;2022-09-09T00:22:16;25.03;27.60
74588;SHT31;63088;51.090;-115.358;2022-09-09T00:24:47;25.03;27.61
74588;SHT31;63088;51.090;-115.358;2022-09-09T00:27:24;25.01;27.62
74588;SHT31;63088;51.090;-115.358;2022-09-09T00:30:12;25.02;27.60
74588;SHT31;63088;51.090;-115.358;2022-09-09T00:32:45;25.00;27.62
74588;SHT31;63088;51.090;-115.358;2022-09-09T00:35:25;24.98;27.64
74588;SHT31;63088;51.090;-115.358;2022-09-09T00:38:18;24.98;27.62
74588;SHT31;63088;51.090;-115.358;2022-09-09T00:44:31;24.97;27.65
74588;SHT31;63088;51.090;-115.358;2022-09-09T00:53:11;24.92;27.69
74588;SHT31;63088;51.090;-115.358;2022-09-09T00:56:16;24.91;27.66
74588;SHT31;63088;51.090;-115.358;2022-09-09T01:05:15;24.87;27.70
74588;SHT31;63088;51.090;-115.358;2022-09-09T01:08:03;24.85;27.69
74588;SHT31;63088;51.090;-115.358;2022-09-09T01:11:07;24.85;27.69
74588;SHT31;63088;51.090;-115.358;2022-09-09T01:14:14;24.84;27.69
74588;SHT31;63088;51.090;-115.358;2022-09-09T01:17:14;24.84;27.69
74588;SHT31;63088;51.090;-115.358;2022-09-09T01:28:55;24.78;27.72
74588;SHT31;63088;51.090;-115.358;2022-09-09T01:31:38;24.77;27.78
74588;SHT31;63088;51.090;-115.358;2022-09-09T01:34:17;24.75;27.80
74588;SHT31;63088;51.090;-115.358;2022-09-09T01:36:46;24.75;27.80
74588;SHT31;63088;51.090;-115.358;2022-09-09T01:39:44;24.73;27.79
74588;SHT31;63088;51.090;-115.358;2022-09-09T01:42:12;24.73;27.80
74588;SHT31;63088;51.090;-115.358;2022-09-09T01:44:44;24.73;27.80
74588;SHT31;63088;51.090;-115.358;2022-09-09T01:47:11;24.72;27.80
74588;SHT31;63088;51.090;-115.358;2022-09-09T01:49:38;24.71;27.81
74588;SHT31;63088;51.090;-115.358;2022-09-09T01:52:04;24.71;27.80
74588;SHT31;63088;51.090;-115.358;2022-09-09T01:54:38;24.71;27.80
74588;SHT31;63088;51.090;-115.358;2022-09-09T01:57:19;24.69;27.80
74588;SHT31;63088;51.090;-115.358;2022-09-09T02:06:33;24.65;27.81
74588;SHT31;63088;51.090;-115.358;2022-09-09T02:09:00;24.64;27.80
74588;SHT31;63088;51.090;-115.358;2022-09-09T02:11:35;24.63;27.84
74588;SHT31;63088;51.090;-115.358;2022-09-09T02:14:08;24.63;27.80
74588;SHT31;63088;51.090;-115.358;2022-09-09T02:17:01;24.63;27.80
74588;SHT31;63088;51.090;-115.358;2022-09-09T02:20:04;24.60;27.83
74588;SHT31;63088;51.090;-115.358;2022-09-09T02:22:43;24.58;27.84
74588;SHT31;63088;51.090;-115.358;2022-09-09T02:25:15;24.56;27.86
74588;SHT31;63088;51.090;-115.358;2022-09-09T02:27:54;24.57;27.84
74588;SHT31;63088;51.090;-115.358;2022-09-09T02:30:26;24.55;27.85
74588;SHT31;63088;51.090;-115.358;2022-09-09T02:33:01;24.54;27.86
74588;SHT31;63088;51.090;-115.358;2022-09-09T02:35:38;24.53;27.85
74588;SHT31;63088;51.090;-115.358;2022-09-09T02:38:20;24.52;27.85
74588;SHT31;63088;51.090;-115.358;2022-09-09T02:40:55;24.53;27.84
74588;SHT31;63088;51.090;-115.358;2022-09-09T02:43:30;24.51;27.86
74588;SHT31;63088;51.090;-115.358;2022-09-09T02:46:12;24.50;27.88
74588;SHT31;63088;51.090;-115.358;2022-09-09T02:49:24;24.47;27.91
74588;SHT31;63088;51.090;-115.358;2022-09-09T02:56:04;24.41;27.93
74588;SHT31;63088;51.090;-115.358;2022-09-09T02:58:44;24.40;27.97
74588;SHT31;63088;51.090;-115.358;2022-09-09T03:01:14;24.40;27.97
74588;SHT31;63088;51.090;-115.358;2022-09-09T03:03:44;24.39;27.96
74588;SHT31;63088;51.090;-115.358;2022-09-09T03:06:23;24.38;28.00
74588;SHT31;63088;51.090;-115.358;2022-09-09T03:09:00;24.38;27.99
74588;SHT31;63088;51.090;-115.358;2022-09-09T03:11:35;24.37;28.00
74588;SHT31;63088;51.090;-115.358;2022-09-09T03:14:03;24.33;28.02
74588;SHT31;63088;51.090;-115.358;2022-09-09T03:16:30;24.33;28.01
74588;SHT31;63088;51.090;-115.358;2022-09-09T03:19:00;24.32;28.00
74588;SHT31;63088;51.090;-115.358;2022-09-09T03:21:40;24.32;28.01
74588;SHT31;63088;51.090;-115.358;2022-09-09T03:24:15;24.30;28.01
74588;SHT31;63088;51.090;-115.358;2022-09-09T03:26:45;24.29;28.01
74588;SHT31;63088;51.090;-115.358;2022-09-09T03:29:22;24.27;28.03
74588;SHT31;63088;51.090;-115.358;2022-09-09T03:31:49;24.25;28.09
74588;SHT31;63088;51.090;-115.358;2022-09-09T03:34:29;24.24;28.09
74588;SHT31;63088;51.090;-115.358;2022-09-09T03:37:10;24.22;28.09
74588;SHT31;63088;51.090;-115.358;2022-09-09T03:39:39;24.23;28.10
74588;SHT31;63088;51.090;-115.358;2022-09-09T03:42:06;24.21;28.10
74588;SHT31;63088;51.090;-115.358;2022-09-09T03:44:33;24.20;28.10
74588;SHT31;63088;51.090;-115.358;2022-09-09T03:47:07;24.18;28.10
74588;SHT31;63088;51.090;-115.358;2022-09-09T03:49:43;24.17;28.13
74588;SHT31;63088;51.090;-115.358;2022-09-09T03:52:11;24.15;28.13
74588;SHT31;63088;51.090;-115.358;2022-09-09T03:54:38;24.13;28.15
74588;SHT31;63088;51.090;-115.358;2022-09-09T03:57:04;24.11;28.19
74588;SHT31;63088;51.090;-115.358;2022-09-09T03:59:45;24.10;28.19
74588;SHT31;63088;51.090;-115.358;2022-09-09T04:02:14;24.08;28.21
74588;SHT31;63088;51.090;-115.358;2022-09-09T04:04:41;24.07;28.20
74588;SHT31;63088;51.090;-115.358;2022-09-09T04:07:08;24.06;28.21
74588;SHT31;63088;51.090;-115.358;2022-09-09T04:09:46;24.04;28.23
74588;SHT31;63088;51.090;-115.358;2022-09-09T04:12:13;24.03;28.20
74588;SHT31;63088;51.090;-115.358;2022-09-09T04:14:41;24.01;28.21
74588;SHT31;63088;51.090;-115.358;2022-09-09T04:17:11;24.00;28.24
74588;SHT31;63088;51.090;-115.358;2022-09-09T04:19:46;24.00;28.24
74588;SHT31;63088;51.090;-115.358;2022-09-09T04:22:13;23.99;28.29
74588;SHT31;63088;51.090;-115.358;2022-09-09T04:24:43;23.98;28.29
74588;SHT31;63088;51.090;-115.358;2022-09-09T04:27:13;23.96;28.29
74588;SHT31;63088;51.090;-115.358;2022-09-09T04:29:40;23.94;28.29
74588;SHT31;63088;51.090;-115.358;2022-09-09T04:32:06;23.94;28.30
74588;SHT31;63088;51.090;-115.358;2022-09-09T04:34:36;23.93;28.30
74588;SHT31;63088;51.090;-115.358;2022-09-09T04:37:06;23.91;28.30
74588;SHT31;63088;51.090;-115.358;2022-09-09T04:39:39;23.91;28.31
74588;SHT31;63088;51.090;-115.358;2022-09-09T04:42:05;23.87;28.33
74588;SHT31;63088;51.090;-115.358;2022-09-09T04:44:32;23.86;28.38
74588;SHT31;63088;51.090;-115.358;2022-09-09T04:47:02;23.85;28.36
74588;SHT31;63088;51.090;-115.358;2022-09-09T04:49:48;23.84;28.39
74588;SHT31;63088;51.090;-115.358;2022-09-09T04:52:15;23.83;28.40
74588;SHT31;63088;51.090;-115.358;2022-09-09T04:54:42;23.81;28.39
74588;SHT31;63088;51.090;-115.358;2022-09-09T04:57:10;23.79;28.41
74588;SHT31;63088;51.090;-115.358;2022-09-09T04:59:37;23.79;28.41
74588;SHT31;63088;51.090;-115.358;2022-09-09T05:02:09;23.77;28.42
74588;SHT31;63088;51.090;-115.358;2022-09-09T05:04:36;23.76;28.44
74588;SHT31;63088;51.090;-115.358;2022-09-09T05:07:06;23.74;28.48
74588;SHT31;63088;51.090;-115.358;2022-09-09T05:09:36;23.73;28.44
74588;SHT31;63088;51.090;-115.358;2022-09-09T05:12:03;23.72;28.48
74588;SHT31;63088;51.090;-115.358;2022-09-09T05:14:30;23.70;28.50
74588;SHT31;63088;51.090;-115.358;2022-09-09T05:16:57;23.69;28.50
74588;SHT31;63088;51.090;-115.358;2022-09-09T05:19:26;23.68;28.51
74588;SHT31;63088;51.090;-115.358;2022-09-09T05:22:20;23.66;28.50
74588;SHT31;63088;51.090;-115.358;2022-09-09T05:24:49;23.64;28.53
74588;SHT31;63088;51.090;-115.358;2022-09-09T05:27:43;23.62;28.55
74588;SHT31;63088;51.090;-115.358;2022-09-09T05:30:21;23.62;28.52
74588;SHT31;63088;51.090;-115.358;2022-09-09T05:32:55;23.61;28.55
74588;SHT31;63088;51.090;-115.358;2022-09-09T05:35:25;23.59;28.58
74588;SHT31;63088;51.090;-115.358;2022-09-09T05:38:01;23.57;28.60
74588;SHT31;63088;51.090;-115.358;2022-09-09T05:40:40;23.55;28.63
74588;SHT31;63088;51.090;-115.358;2022-09-09T05:43:17;23.54;28.60
74588;SHT31;63088;51.090;-115.358;2022-09-09T05:46:03;23.53;28.60
74588;SHT31;63088;51.090;-115.358;2022-09-09T05:48:44;23.51;28.62
74588;SHT31;63088;51.090;-115.358;2022-09-09T05:51:22;23.50;28.64
74588;SHT31;63088;51.090;-115.358;2022-09-09T05:53:56;23.48;28.68
74588;SHT31;63088;51.090;-115.358;2022-09-09T05:56:38;23.48;28.70
74588;SHT31;63088;51.090;-115.358;2022-09-09T05:59:17;23.46;28.70
74588;SHT31;63088;51.090;-115.358;2022-09-09T06:01:51;23.44;28.70
74588;SHT31;63088;51.090;-115.358;2022-09-09T06:04:18;23.43;28.70
74588;SHT31;63088;51.090;-115.358;2022-09-09T06:07:00;23.43;28.71
74588;SHT31;63088;51.090;-115.358;2022-09-09T06:09:30;23.41;28.71
74588;SHT31;63088;51.090;-115.358;2022-09-09T06:12:21;23.40;28.74
74588;SHT31;63088;51.090;-115.358;2022-09-09T06:14:53;23.38;28.80
74588;SHT31;63088;51.090;-115.358;2022-09-09T06:17:31;23.37;28.79
74588;SHT31;63088;51.090;-115.358;2022-09-09T06:20:12;23.34;28.82
74588;SHT31;63088;51.090;-115.358;2022-09-09T06:22:42;23.32;28.87
74588;SHT31;63088;51.090;-115.358;2022-09-09T06:25:14;23.30;28.90
74588;SHT31;63088;51.090;-115.358;2022-09-09T06:27:47;23.30;28.91
74588;SHT31;63088;51.090;-115.358;2022-09-09T06:30:15;23.28;28.99
74588;SHT31;63088;51.090;-115.358;2022-09-09T06:32:42;23.25;29.01
74588;SHT31;63088;51.090;-115.358;2022-09-09T06:35:09;23.26;29.01
74588;SHT31;63088;51.090;-115.358;2022-09-09T06:37:36;23.25;29.06
74588;SHT31;63088;51.090;-115.358;2022-09-09T06:40:03;23.23;29.11
74588;SHT31;63088;51.090;-115.358;2022-09-09T06:42:30;23.21;29.18
74588;SHT31;63088;51.090;-115.358;2022-09-09T06:44:56;23.19;29.20
74588;SHT31;63088;51.090;-115.358;2022-09-09T06:47:24;23.18;29.22
74588;SHT31;63088;51.090;-115.358;2022-09-09T06:49:53;23.18;29.27
74588;SHT31;63088;51.090;-115.358;2022-09-09T06:52:23;23.18;29.30
74588;SHT31;63088;51.090;-115.358;2022-09-09T06:54:50;23.16;29.31
74588;SHT31;63088;51.090;-115.358;2022-09-09T06:57:18;23.15;29.37
74588;SHT31;63088;51.090;-115.358;2022-09-09T06:59:47;23.15;29.39
74588;SHT31;63088;51.090;-115.358;2022-09-09T07:02:22;23.11;29.41
74588;SHT31;63088;51.090;-115.358;2022-09-09T07:04:49;23.11;29.48
74588;SHT31;63088;51.090;-115.358;2022-09-09T07:07:16;23.08;29.49
74588;SHT31;63088;51.090;-115.358;2022-09-09T07:09:44;23.08;29.51
74588;SHT31;63088;51.090;-115.358;2022-09-09T07:12:12;23.08;29.50
74588;SHT31;63088;51.090;-115.358;2022-09-09T07:14:41;23.07;29.54
74588;SHT31;63088;51.090;-115.358;2022-09-09T07:17:11;23.06;29.55
74588;SHT31;63088;51.090;-115.358;2022-09-09T07:19:37;23.03;29.57
74588;SHT31;63088;51.090;-115.358;2022-09-09T07:22:04;23.03;29.60
74588;SHT31;63088;51.090;-115.358;2022-09-09T07:24:31;23.00;29.60
74588;SHT31;63088;51.090;-115.358;2022-09-09T07:27:08;22.98;29.67
74588;SHT31;63088;51.090;-115.358;2022-09-09T07:29:41;22.97;29.67
74588;SHT31;63088;51.090;-115.358;2022-09-09T07:32:08;22.95;29.67
74588;SHT31;63088;51.090;-115.358;2022-09-09T07:34:38;22.93;29.68
74588;SHT31;63088;51.090;-115.358;2022-09-09T07:37:07;22.93;29.68
74588;SHT31;63088;51.090;-115.358;2022-09-09T07:39:39;22.90;29.70
74588;SHT31;63088;51.090;-115.358;2022-09-09T07:42:11;22.90;29.70
74588;SHT31;63088;51.090;-115.358;2022-09-09T07:44:38;22.87;29.70
74588;SHT31;63088;51.090;-115.358;2022-09-09T07:47:20;22.87;29.69
74588;SHT31;63088;51.090;-115.358;2022-09-09T07:49:58;22.84;29.71
74588;SHT31;63088;51.090;-115.358;2022-09-09T07:52:25;22.83;29.70
74588;SHT31;63088;51.090;-115.358;2022-09-09T07:55:24;22.83;29.73
74588;SHT31;63088;51.090;-115.358;2022-09-09T07:58:07;22.79;29.76
74588;SHT31;63088;51.090;-115.358;2022-09-09T08:00:42;22.77;29.79
74588;SHT31;63088;51.090;-115.358;2022-09-09T08:03:10;22.77;29.80
74588;SHT31;63088;51.090;-115.358;2022-09-09T08:05:49;22.76;29.80
74588;SHT31;63088;51.090;-115.358;2022-09-09T08:08:16;22.73;29.81
74588;SHT31;63088;51.090;-115.358;2022-09-09T08:10:43;22.71;29.82
74588;SHT31;63088;51.090;-115.358;2022-09-09T08:13:14;22.72;29.83
74588;SHT31;63088;51.090;-115.358;2022-09-09T08:15:44;22.70;29.85
74588;SHT31;63088;51.090;-115.358;2022-09-09T08:18:11;22.69;29.84
74588;SHT31;63088;51.090;-115.358;2022-09-09T08:20:38;22.67;29.85
74588;SHT31;63088;51.090;-115.358;2022-09-09T08:23:05;22.66;29.89
74588;SHT31;63088;51.090;-115.358;2022-09-09T08:25:32;22.65;29.90
74588;SHT31;63088;51.090;-115.358;2022-09-09T08:28:03;22.64;29.90
74588;SHT31;63088;51.090;-115.358;2022-09-09T08:30:55;22.63;29.89
74588;SHT31;63088;51.090;-115.358;2022-09-09T08:33:39;22.62;29.90
74588;SHT31;63088;51.090;-115.358;2022-09-09T08:36:22;22.61;29.91
74588;SHT31;63088;51.090;-115.358;2022-09-09T08:38:53;22.60;29.90
74588;SHT31;63088;51.090;-115.358;2022-09-09T08:41:38;22.57;29.91
74588;SHT31;63088;51.090;-115.358;2022-09-09T08:44:43;22.57;29.92
74588;SHT31;63088;51.090;-115.358;2022-09-09T08:47:41;22.56;29.95
74588;SHT31;63088;51.090;-115.358;2022-09-09T08:50:26;22.54;29.98
74588;SHT31;63088;51.090;-115.358;2022-09-09T08:53:14;22.51;30.00
74588;SHT31;63088;51.090;-115.358;2022-09-09T08:58:25;22.50;30.00
74588;SHT31;63088;51.090;-115.358;2022-09-09T09:07:59;22.44;30.07
74588;SHT31;63088;51.090;-115.358;2022-09-09T09:10:55;22.43;30.08
74588;SHT31;63088;51.090;-115.358;2022-09-09T09:19:11;22.40;30.11
74588;SHT31;63088;51.090;-115.358;2022-09-09T09:21:54;22.39;30.09
74588;SHT31;63088;51.090;-115.358;2022-09-09T09:25:02;22.36;30.13
74588;SHT31;63088;51.090;-115.358;2022-09-09T09:27:51;22.36;30.15
74588;SHT31;63088;51.090;-115.358;2022-09-09T09:33:35;22.34;30.17
74588;SHT31;63088;51.090;-115.358;2022-09-09T09:36:12;22.34;30.20
74588;SHT31;63088;51.090;-115.358;2022-09-09T09:39:23;22.31;30.19
74588;SHT31;63088;51.090;-115.358;2022-09-09T09:42:10;22.30;30.20
74588;SHT31;63088;51.090;-115.358;2022-09-09T09:44:39;22.30;30.20
74588;SHT31;63088;51.090;-115.358;2022-09-09T09:50:18;22.27;30.24
74588;SHT31;63088;51.090;-115.358;2022-09-09T09:53:17;22.24;30.27
74588;SHT31;63088;51.090;-115.358;2022-09-09T09:55:58;22.22;30.30
74588;SHT31;63088;51.090;-115.358;2022-09-09T09:58:33;22.21;30.30
74588;SHT31;63088;51.090;-115.358;2022-09-09T10:01:25;22.22;30.30
74588;SHT31;63088;51.090;-115.358;2022-09-09T10:04:02;22.20;30.31
74588;SHT31;63088;51.090;-115.358;2022-09-09T10:06:51;22.19;30.31
74588;SHT31;63088;51.090;-115.358;2022-09-09T10:09:55;22.17;30.33
74588;SHT31;63088;51.090;-115.358;2022-09-09T10:12:33;22.17;30.36
74588;SHT31;63088;51.090;-115.358;2022-09-09T10:21:41;22.12;30.40
74588;SHT31;63088;51.090;-115.358;2022-09-09T10:24:32;22.10;30.46
74588;SHT31;63088;51.090;-115.358;2022-09-09T10:33:58;22.03;30.54
74588;SHT31;63088;51.090;-115.358;2022-09-09T10:36:58;22.02;30.55
74588;SHT31;63088;51.090;-115.358;2022-09-09T10:42:14;22.01;30.55
74588;SHT31;63088;51.090;-115.358;2022-09-09T10:53:35;21.96;30.63
74588;SHT31;63088;51.090;-115.358;2022-09-09T10:56:22;21.94;30.63
74588;SHT31;63088;51.090;-115.358;2022-09-09T10:59:04;21.93;30.66
74588;SHT31;63088;51.090;-115.358;2022-09-09T11:02:06;21.91;30.70
74588;SHT31;63088;51.090;-115.358;2022-09-09T11:04:58;21.88;30.70
74588;SHT31;63088;51.090;-115.358;2022-09-09T11:07:29;21.88;30.71
74588;SHT31;63088;51.090;-115.358;2022-09-09T11:10:36;21.87;30.70
74588;SHT31;63088;51.090;-115.358;2022-09-09T11:13:57;21.86;30.70
74588;SHT31;63088;51.090;-115.358;2022-09-09T11:16:34;21.86;30.72
74588;SHT31;63088;51.090;-115.358;2022-09-09T11:19:17;21.82;30.73
74588;SHT31;63088;51.090;-115.358;2022-09-09T11:22:04;21.83;30.77
74588;SHT31;63088;51.090;-115.358;2022-09-09T11:24:51;21.82;30.78
74588;SHT31;63088;51.090;-115.358;2022-09-09T11:31:13;21.80;30.79
74588;SHT31;63088;51.090;-115.358;2022-09-09T11:36:46;21.77;30.80
74588;SHT31;63088;51.090;-115.358;2022-09-09T11:42:25;21.73;30.81
74588;SHT31;63088;51.090;-115.358;2022-09-09T11:47:58;21.70;30.86
74588;SHT31;63088;51.090;-115.358;2022-09-09T11:50:32;21.70;30.89
74588;SHT31;63088;51.090;-115.358;2022-09-09T11:53:04;21.69;30.88
74588;SHT31;63088;51.090;-115.358;2022-09-09T11:56:05;21.68;30.90
74588;SHT31;63088;51.090;-115.358;2022-09-09T11:58:41;21.67;30.90
74588;SHT31;63088;51.090;-115.358;2022-09-09T12:01:30;21.67;30.90
74588;SHT31;63088;51.090;-115.358;2022-09-09T12:06:46;21.63;30.95
74588;SHT31;63088;51.090;-115.358;2022-09-09T12:09:43;21.63;30.95
74588;SHT31;63088;51.090;-115.358;2022-09-09T12:12:30;21.62;30.97
74588;SHT31;63088;51.090;-115.358;2022-09-09T12:15:17;21.60;30.96
74588;SHT31;63088;51.090;-115.358;2022-09-09T12:18:00;21.59;30.99
74588;SHT31;63088;51.090;-115.358;2022-09-09T12:26:51;21.55;30.97
74588;SHT31;63088;51.090;-115.358;2022-09-09T12:32:41;21.52;30.98
74588;SHT31;63088;51.090;-115.358;2022-09-09T12:35:26;21.51;31.01
74588;SHT31;63088;51.090;-115.358;2022-09-09T12:37:58;21.50;31.03
74588;SHT31;63088;51.090;-115.358;2022-09-09T12:40:30;21.50;31.04
74588;SHT31;63088;51.090;-115.358;2022-09-09T12:43:19;21.51;31.07
74588;SHT31;63088;51.090;-115.358;2022-09-09T12:46:07;21.51;31.08
74588;SHT31;63088;51.090;-115.358;2022-09-09T12:55:15;21.49;31.11
74588;SHT31;63088;51.090;-115.358;2022-09-09T12:57:55;21.48;31.11
74588;SHT31;63088;51.090;-115.358;2022-09-09T13:00:37;21.47;31.11
74588;SHT31;63088;51.090;-115.358;2022-09-09T13:03:20;21.46;31.13
74588;SHT31;63088;51.090;-115.358;2022-09-09T13:05:51;21.45;31.16
74588;SHT31;63088;51.090;-115.358;2022-09-09T13:08:22;21.46;31.19
74588;SHT31;63088;51.090;-115.358;2022-09-09T13:17:01;21.42;31.16
74588;SHT31;63088;51.090;-115.358;2022-09-09T13:19:48;21.39;31.16
74588;SHT31;63088;51.090;-115.358;2022-09-09T13:22:22;21.38;31.12
74588;SHT31;63088;51.090;-115.358;2022-09-09T13:28:00;21.36;31.07
74588;SHT31;63088;51.090;-115.358;2022-09-09T13:30:36;21.34;31.05
74588;SHT31;63088;51.090;-115.358;2022-09-09T13:35:47;21.32;30.99
74588;SHT31;63088;51.090;-115.358;2022-09-09T13:38:21;21.30;30.95
74588;SHT31;63088;51.090;-115.358;2022-09-09T13:41:58;21.29;31.04
74588;SHT31;63088;51.090;-115.358;2022-09-09T13:44:14;21.31;31.20
74588;SHT31;63088;51.090;-115.358;2022-09-09T13:47:04;21.32;31.27
74588;SHT31;63088;51.090;-115.358;2022-09-09T13:49:48;21.33;31.30
74588;SHT31;63088;51.090;-115.358;2022-09-09T13:52:19;21.34;31.37
74588;SHT31;63088;51.090;-115.358;2022-09-09T13:54:48;21.34;31.42
74588;SHT31;63088;51.090;-115.358;2022-09-09T13:57:23;21.35;31.40
74588;SHT31;63088;51.090;-115.358;2022-09-09T13:59:54;21.34;31.45
74588;SHT31;63088;51.090;-115.358;2022-09-09T14:02:21;21.34;31.47
74588;SHT31;63088;51.090;-115.358;2022-09-09T14:04:51;21.33;31.49
74588;SHT31;63088;51.090;-115.358;2022-09-09T14:07:20;21.34;31.44
74588;SHT31;63088;51.090;-115.358;2022-09-09T14:09:47;21.33;31.37
74588;SHT31;63088;51.090;-115.358;2022-09-09T14:12:17;21.34;31.35
74588;SHT31;63088;51.090;-115.358;2022-09-09T14:14:43;21.31;31.32
74588;SHT31;63088;51.090;-115.358;2022-09-09T14:17:10;21.31;31.40
74588;SHT31;63088;51.090;-115.358;2022-09-09T14:19:40;21.32;31.42
74588;SHT31;63088;51.090;-115.358;2022-09-09T14:22:08;21.32;31.49
74588;SHT31;63088;51.090;-115.358;2022-09-09T14:24:43;21.33;31.48
74588;SHT31;63088;51.090;-115.358;2022-09-09T14:27:10;21.32;31.49
74588;SHT31;63088;51.090;-115.358;2022-09-09T14:29:39;21.32;31.44
74588;SHT31;63088;51.090;-115.358;2022-09-09T14:32:09;21.29;31.40
74588;SHT31;63088;51.090;-115.358;2022-09-09T14:34:37;21.29;31.41
74588;SHT31;63088;51.090;-115.358;2022-09-09T14:39:44;21.29;31.51
74588;SHT31;63088;51.090;-115.358;2022-09-09T14:42:17;21.29;31.56
74588;SHT31;63088;51.090;-115.358;2022-09-09T14:44:52;21.29;31.57
74588;SHT31;63088;51.090;-115.358;2022-09-09T14:47:18;21.29;31.58
74588;SHT31;63088;51.090;-115.358;2022-09-09T14:49:45;21.29;31.64
74588;SHT31;63088;51.090;-115.358;2022-09-09T14:52:14;21.29;31.73
74588;SHT31;63088;51.090;-115.358;2022-09-09T14:54:41;21.30;31.81
74588;SHT31;63088;51.090;-115.358;2022-09-09T14:57:11;21.31;31.80
74588;SHT31;63088;51.090;-115.358;2022-09-09T14:59:52;21.33;31.83
74588;SHT31;63088;51.090;-115.358;2022-09-09T15:02:25;21.33;31.88
74588;SHT31;63088;51.090;-115.358;2022-09-09T15:04:55;21.33;31.82
74588;SHT31;63088;51.090;-115.358;2022-09-09T15:07:23;21.34;31.85
74588;SHT31;63088;51.090;-115.358;2022-09-09T15:09:52;21.34;31.91
74588;SHT31;63088;51.090;-115.358;2022-09-09T15:12:19;21.34;32.05
74588;SHT31;63088;51.090;-115.358;2022-09-09T15:14:49;21.36;32.02
74588;SHT31;63088;51.090;-115.358;2022-09-09T15:17:39;21.39;32.00
74588;SHT31;63088;51.090;-115.358;2022-09-09T15:20:08;21.40;32.01
74588;SHT31;63088;51.090;-115.358;2022-09-09T15:22:38;21.41;32.00
74588;SHT31;63088;51.090;-115.358;2022-09-09T15:25:22;21.42;31.99
74588;SHT31;63088;51.090;-115.358;2022-09-09T15:27:49;21.41;31.97
74588;SHT31;63088;51.090;-115.358;2022-09-09T15:30:15;21.42;31.98
74588;SHT31;63088;51.090;-115.358;2022-09-09T15:32:45;21.42;32.04
74588;SHT31;63088;51.090;-115.358;2022-09-09T15:35:21;21.42;32.20
74588;SHT31;63088;51.090;-115.358;2022-09-09T15:37:47;21.45;32.16
74588;SHT31;63088;51.090;-115.358;2022-09-09T15:40:17;21.48;32.17
74588;SHT31;63088;51.090;-115.358;2022-09-09T15:42:56;21.48;32.16
74588;SHT31;63088;51.090;-115.358;2022-09-09T15:45:29;21.48;32.20
74588;SHT31;63088;51.090;-115.358;2022-09-09T15:48:00;21.49;32.17
74588;SHT31;63088;51.090;-115.358;2022-09-09T15:50:29;21.50;32.19
74588;SHT31;63088;51.090;-115.358;2022-09-09T15:53:00;21.50;32.17
74588;SHT31;63088;51.090;-115.358;2022-09-09T15:55:31;21.51;32.19
74588;SHT31;63088;51.090;-115.358;2022-09-09T15:57:58;21.51;32.17
74588;SHT31;63088;51.090;-115.358;2022-09-09T16:00:26;21.51;32.24
74588;SHT31;63088;51.090;-115.358;2022-09-09T16:02:54;21.53;32.37
74588;SHT31;63088;51.090;-115.358;2022-09-09T16:05:21;21.55;32.43
74588;SHT31;63088;51.090;-115.358;2022-09-09T16:07:48;21.58;32.48
74588;SHT31;63088;51.090;-115.358;2022-09-09T16:10:14;21.60;32.47
74588;SHT31;63088;51.090;-115.358;2022-09-09T16:12:41;21.62;32.51
74588;SHT31;63088;51.090;-115.358;2022-09-09T16:15:14;21.65;32.68
74588;SHT31;63088;51.090;-115.358;2022-09-09T16:17:41;21.65;32.61
74588;SHT31;63088;51.090;-115.358;2022-09-09T16:20:09;21.68;32.54
74588;SHT31;63088;51.090;-115.358;2022-09-09T16:22:39;21.69;32.45
74588;SHT31;63088;51.090;-115.358;2022-09-09T16:25:24;21.69;32.51
74588;SHT31;63088;51.090;-115.358;2022-09-09T16:28:05;21.70;32.58
74588;SHT31;63088;51.090;-115.358;2022-09-09T16:30:43;21.73;32.66
74588;SHT31;63088;51.090;-115.358;2022-09-09T16:33:10;21.75;32.59
74588;SHT31;63088;51.090;-115.358;2022-09-09T16:35:46;21.79;32.54
74588;SHT31;63088;51.090;-115.358;2022-09-09T16:38:14;21.80;32.51
74588;SHT31;63088;51.090;-115.358;2022-09-09T16:40:44;21.82;32.54
74588;SHT31;63088;51.090;-115.358;2022-09-09T16:43:13;21.84;32.50
74588;SHT31;63088;51.090;-115.358;2022-09-09T16:45:41;21.85;32.50
74588;SHT31;63088;51.090;-115.358;2022-09-09T16:48:10;21.86;32.48
74588;SHT31;63088;51.090;-115.358;2022-09-09T16:50:41;21.87;32.44
74588;SHT31;63088;51.090;-115.358;2022-09-09T16:53:08;21.88;32.46
74588;SHT31;63088;51.090;-115.358;2022-09-09T16:55:40;21.89;32.52
74588;SHT31;63088;51.090;-115.358;2022-09-09T16:58:10;21.91;32.56
74588;SHT31;63088;51.090;-115.358;2022-09-09T17:00:43;21.94;32.58
74588;SHT31;63088;51.090;-115.358;2022-09-09T17:03:14;21.96;32.59
74588;SHT31;63088;51.090;-115.358;2022-09-09T17:05:46;21.99;32.58
74588;SHT31;63088;51.090;-115.358;2022-09-09T17:08:13;22.01;32.51
74588;SHT31;63088;51.090;-115.358;2022-09-09T17:10:43;22.03;32.54
74588;SHT31;63088;51.090;-115.358;2022-09-09T17:13:29;22.03;32.50
74588;SHT31;63088;51.090;-115.358;2022-09-09T17:16:14;22.06;32.49
74588;SHT31;63088;51.090;-115.358;2022-09-09T17:18:50;22.08;32.42
74588;SHT31;63088;51.090;-115.358;2022-09-09T17:21:19;22.11;32.34
74588;SHT31;63088;51.090;-115.358;2022-09-09T17:23:50;22.12;32.30
74588;SHT31;63088;51.090;-115.358;2022-09-09T17:26:22;22.16;32.25
74588;SHT31;63088;51.090;-115.358;2022-09-09T17:28:59;22.17;32.21
74588;SHT31;63088;51.090;-115.358;2022-09-09T17:31:28;22.19;32.17
74588;SHT31;63088;51.090;-115.358;2022-09-09T17:33:57;22.19;32.20
74588;SHT31;63088;51.090;-115.358;2022-09-09T17:36:26;22.22;32.18
74588;SHT31;63088;51.090;-115.358;2022-09-09T17:38:58;22.24;32.10
74588;SHT31;63088;51.090;-115.358;2022-09-09T17:41:32;22.28;32.07
74588;SHT31;63088;51.090;-115.358;2022-09-09T17:44:15;22.31;32.01
74588;SHT31;63088;51.090;-115.358;2022-09-09T17:46:45;22.33;31.99
74588;SHT31;63088;51.090;-115.358;2022-09-09T17:49:15;22.34;31.94
74588;SHT31;63088;51.090;-115.358;2022-09-09T17:51:45;22.37;31.91
74588;SHT31;63088;51.090;-115.358;2022-09-09T17:54:17;22.39;31.89
74588;SHT31;63088;51.090;-115.358;2022-09-09T17:56:45;22.41;31.86
74588;SHT31;63088;51.090;-115.358;2022-09-09T17:59:17;22.43;31.85